createdAt,value
2023-03-05T00:01:16.512Z,19.60
2023-03-05T00:03:43.674Z,19.90
2023-03-05T00:06:10.874Z,19.00
2023-03-05T00:08:38.152Z,17.00
2023-03-05T00:11:09.276Z,26.20
2023-03-05T00:13:37.026Z,26.00
2023-03-05T00:16:09.365Z,20.40
2023-03-05T00:18:37.324Z,22.00
2023-03-05T00:21:05.225Z,19.30
2023-03-05T00:23:32.290Z,25.60
2023-03-05T00:26:02.565Z,22.10
2023-03-05T00:28:29.817Z,18.00
2023-03-05T00:31:01.317Z,16.60
2023-03-05T00:33:28.534Z,22.70
2023-03-05T00:35:55.660Z,15.40
2023-03-05T00:38:22.878Z,18.80
2023-03-05T00:40:50.926Z,22.50
2023-03-05T00:43:18.048Z,20.20
2023-03-05T00:45:45.146Z,18.10
2023-03-05T00:48:12.688Z,18.70
2023-03-05T00:50:39.820Z,34.20
2023-03-05T00:53:06.937Z,49.20
2023-03-05T00:55:36.210Z,35.40
2023-03-05T00:58:03.605Z,43.00
2023-03-05T01:00:30.820Z,34.90
2023-03-05T01:02:58.071Z,29.60
2023-03-05T01:05:26.647Z,77.10
2023-03-05T01:07:55.820Z,68.90
2023-03-05T01:10:28.035Z,66.70
2023-03-05T01:12:55.463Z,114.80
2023-03-05T01:15:23.870Z,101.40
2023-03-05T01:17:51.302Z,44.20
2023-03-05T01:20:21.337Z,43.90
2023-03-05T01:22:49.132Z,29.60
2023-03-05T01:25:17.427Z,18.50
2023-03-05T01:27:44.984Z,20.90
2023-03-05T01:30:14.382Z,17.60
2023-03-05T01:32:41.715Z,14.20
2023-03-05T01:35:10.915Z,19.10
2023-03-05T01:37:38.048Z,16.40
2023-03-05T01:40:06.256Z,17.90
2023-03-05T01:42:34.416Z,19.90
2023-03-05T01:45:02.401Z,20.30
2023-03-05T01:47:29.999Z,18.80
2023-03-05T01:49:57.766Z,19.50
2023-03-05T01:52:25.578Z,24.30
2023-03-05T01:54:52.739Z,19.10
2023-03-05T01:57:25.024Z,29.80
2023-03-05T01:59:58.277Z,175.80
2023-03-05T02:02:25.929Z,523.80
2023-03-05T02:05:03.090Z,833.10
2023-03-05T02:07:31.623Z,762.50
2023-03-05T02:09:59.758Z,1166.80
2023-03-05T02:12:26.824Z,833.70
2023-03-05T02:14:59.444Z,589.80
2023-03-05T02:17:30.600Z,424.60
2023-03-05T02:20:06.351Z,180.90
2023-03-05T02:22:33.519Z,67.20
2023-03-05T02:25:00.602Z,29.70
2023-03-05T02:27:35.893Z,28.10
2023-03-05T02:30:03.487Z,19.60
2023-03-05T02:32:30.614Z,20.40
2023-03-05T02:34:57.729Z,16.00
2023-03-05T02:37:24.901Z,17.80
2023-03-05T02:39:52.232Z,19.30
2023-03-05T02:42:19.486Z,173.70
2023-03-05T02:44:46.634Z,683.20
2023-03-05T02:47:13.801Z,543.70
2023-03-05T02:49:40.915Z,1248.10
2023-03-05T02:52:08.251Z,709.20
2023-03-05T02:54:35.281Z,560.40
2023-03-05T02:57:03.854Z,654.20
2023-03-05T02:59:31.034Z,103.10
2023-03-05T03:01:58.355Z,58.50
2023-03-05T03:04:26.042Z,34.70
2023-03-05T03:06:53.299Z,22.00
2023-03-05T03:09:20.706Z,16.50
2023-03-05T03:11:47.923Z,16.30
2023-03-05T03:14:15.078Z,14.00
2023-03-05T03:16:42.325Z,14.80
2023-03-05T03:19:09.562Z,12.50
2023-03-05T03:21:36.694Z,17.00
2023-03-05T03:24:04.095Z,15.50
2023-03-05T03:26:32.033Z,16.60
2023-03-05T03:28:59.242Z,13.40
2023-03-05T03:31:26.342Z,17.30
2023-03-05T03:33:53.466Z,22.20
2023-03-05T03:36:20.568Z,13.60
2023-03-05T03:38:47.664Z,16.70
2023-03-05T03:41:14.827Z,13.80
2023-03-05T03:43:41.973Z,12.20
2023-03-05T03:46:09.170Z,11.00
2023-03-05T03:48:36.551Z,11.20
2023-03-05T03:51:07.303Z,11.00
2023-03-05T03:53:34.705Z,12.50
2023-03-05T03:56:02.209Z,11.40
2023-03-05T03:58:29.354Z,11.70
2023-03-05T04:00:56.354Z,13.30
2023-03-05T04:03:23.475Z,12.80
2023-03-05T04:05:50.559Z,16.50
2023-03-05T04:08:17.698Z,13.80
2023-03-05T04:10:45.002Z,14.20
2023-03-05T04:13:12.182Z,13.80
2023-03-05T04:15:39.855Z,11.10
2023-03-05T04:18:06.993Z,17.60
2023-03-05T04:20:34.143Z,13.90
2023-03-05T04:23:01.310Z,15.00
2023-03-05T04:25:28.445Z,20.80
2023-03-05T04:27:55.876Z,17.40
2023-03-05T04:30:22.912Z,12.30
2023-03-05T04:32:50.076Z,13.10
2023-03-05T04:35:17.292Z,9.20
2023-03-05T04:37:44.909Z,10.40
2023-03-05T04:40:12.488Z,10.60
2023-03-05T04:42:39.672Z,10.70
2023-03-05T04:45:08.027Z,10.80
2023-03-05T04:47:35.470Z,11.90
2023-03-05T04:50:04.528Z,15.30
2023-03-05T04:52:31.859Z,15.20
2023-03-05T04:54:59.088Z,14.30
2023-03-05T04:57:26.251Z,14.40
2023-03-05T04:59:53.387Z,16.80
2023-03-05T05:02:20.482Z,17.90
2023-03-05T05:04:47.530Z,15.40
2023-03-05T05:07:14.619Z,17.60
2023-03-05T05:09:41.687Z,15.60
2023-03-05T05:12:10.534Z,11.90
2023-03-05T05:14:37.666Z,13.10
2023-03-05T05:17:05.360Z,15.10
2023-03-05T05:19:34.409Z,13.90
2023-03-05T05:22:02.362Z,18.00
2023-03-05T05:24:29.474Z,16.30
2023-03-05T05:26:57.011Z,15.20
2023-03-05T05:29:24.158Z,16.60
2023-03-05T05:31:51.323Z,13.30
2023-03-05T05:34:18.559Z,10.00
2023-03-05T05:36:45.649Z,11.10
2023-03-05T05:39:12.761Z,11.80
2023-03-05T05:41:39.843Z,11.30
2023-03-05T05:44:07.115Z,12.40
2023-03-05T05:46:34.319Z,9.10
2023-03-05T05:49:01.668Z,11.10
2023-03-05T05:51:28.807Z,17.60
2023-03-05T05:53:55.989Z,10.20
2023-03-05T05:56:23.050Z,16.60
2023-03-05T05:58:50.536Z,16.40
2023-03-05T06:01:25.320Z,17.10
2023-03-05T06:03:52.724Z,11.70
2023-03-05T06:06:22.592Z,15.00
2023-03-05T06:08:49.892Z,14.70
2023-03-05T06:11:19.330Z,11.90
2023-03-05T06:13:47.826Z,12.70
2023-03-05T06:16:18.212Z,9.90
2023-03-05T06:18:45.520Z,9.80
2023-03-05T06:21:15.376Z,14.40
2023-03-05T06:23:43.391Z,10.80
2023-03-05T06:26:12.740Z,10.60
2023-03-05T06:28:40.050Z,11.30
2023-03-05T06:31:13.399Z,9.50
2023-03-05T06:33:42.054Z,13.60
2023-03-05T06:36:13.310Z,10.50
2023-03-05T06:38:40.510Z,13.40
2023-03-05T06:41:11.650Z,9.80
2023-03-05T06:43:41.147Z,9.10
2023-03-05T06:46:14.395Z,14.00
2023-03-05T06:48:43.396Z,8.90
2023-03-05T06:51:27.695Z,8.50
2023-03-05T06:53:56.583Z,10.30
2023-03-05T06:56:23.583Z,9.70
2023-03-05T06:58:51.770Z,9.80
2023-03-05T07:01:20.846Z,13.00
2023-03-05T07:03:55.048Z,7.90
2023-03-05T07:06:22.794Z,8.70
2023-03-05T07:08:50.669Z,11.20
2023-03-05T07:11:20.450Z,19.00
2023-03-05T07:13:48.153Z,9.50
2023-03-05T07:16:21.820Z,9.50
2023-03-05T07:18:49.645Z,10.10
2023-03-05T07:21:25.867Z,10.40
2023-03-05T07:23:54.582Z,11.90
2023-03-05T07:26:22.355Z,7.90
2023-03-05T07:28:49.565Z,28.40
2023-03-05T07:31:19.655Z,20.50
2023-03-05T07:33:49.452Z,56.00
2023-03-05T07:36:17.912Z,53.30
2023-03-05T07:38:45.624Z,49.70
2023-03-05T07:41:19.827Z,20.00
2023-03-05T07:43:49.388Z,36.90
2023-03-05T07:46:18.455Z,44.20
2023-03-05T07:48:45.811Z,34.80
2023-03-05T07:51:16.050Z,22.70
2023-03-05T07:53:44.218Z,12.90
2023-03-05T07:56:11.648Z,12.70
2023-03-05T07:58:38.822Z,9.90
2023-03-05T08:01:15.574Z,19.20
2023-03-05T08:03:43.737Z,12.40
2023-03-05T08:06:12.466Z,8.90
2023-03-05T08:08:39.764Z,7.90
2023-03-05T08:11:09.678Z,13.30
2023-03-05T08:13:37.573Z,11.80
2023-03-05T08:16:06.530Z,12.70
2023-03-05T08:18:34.072Z,10.80
2023-03-05T08:21:01.913Z,10.50
2023-03-05T08:23:29.416Z,9.80
2023-03-05T08:25:56.887Z,8.50
2023-03-05T08:28:24.131Z,10.00
2023-03-05T08:30:51.349Z,10.90
2023-03-05T08:33:18.721Z,6.50
2023-03-05T08:35:46.352Z,4.40
2023-03-05T08:38:13.703Z,4.70
2023-03-05T08:40:40.753Z,7.50
2023-03-05T08:43:07.740Z,11.20
2023-03-05T08:45:34.833Z,9.30
2023-03-05T08:48:01.914Z,6.40
2023-03-05T08:50:28.987Z,11.10
2023-03-05T08:52:57.129Z,8.80
2023-03-05T08:55:24.258Z,15.60
2023-03-05T08:57:51.352Z,32.50
2023-03-05T09:00:18.993Z,60.90
2023-03-05T09:02:46.484Z,61.40
2023-03-05T09:05:13.915Z,94.30
2023-03-05T09:07:41.235Z,145.40
2023-03-05T09:10:11.540Z,72.80
2023-03-05T09:12:38.656Z,38.60
2023-03-05T09:15:08.439Z,29.20
2023-03-05T09:17:37.164Z,26.60
2023-03-05T09:20:06.567Z,16.20
2023-03-05T09:22:33.734Z,20.20
2023-03-05T09:25:00.912Z,50.50
2023-03-05T09:27:27.964Z,139.10
2023-03-05T09:29:55.748Z,75.70
2023-03-05T09:32:22.824Z,65.70
2023-03-05T09:34:49.878Z,21.50
2023-03-05T09:37:17.073Z,14.70
2023-03-05T09:39:44.401Z,107.20
2023-03-05T09:42:45.868Z,119.50
2023-03-05T09:45:27.428Z,30.40
2023-03-05T09:48:20.595Z,38.40
2023-03-05T09:50:50.781Z,26.60
2023-03-05T09:53:33.138Z,25.40
2023-03-05T09:56:04.848Z,27.20
2023-03-05T09:59:04.332Z,26.80
2023-03-05T10:01:39.682Z,19.40
2023-03-05T10:04:28.808Z,23.00
2023-03-05T10:07:00.766Z,33.60
2023-03-05T10:09:43.054Z,57.50
2023-03-05T10:12:25.442Z,23.10
2023-03-05T10:14:52.684Z,45.90
2023-03-05T10:17:41.913Z,36.80
2023-03-05T10:20:24.189Z,46.30
2023-03-05T10:23:19.666Z,41.80
2023-03-05T10:26:08.624Z,56.60
2023-03-05T10:28:52.737Z,55.40
2023-03-05T10:31:28.888Z,50.90
2023-03-05T10:34:16.333Z,53.80
2023-03-05T10:37:27.126Z,91.00
2023-03-05T10:40:11.044Z,288.10
2023-03-05T10:42:52.994Z,186.80
2023-03-05T10:45:39.311Z,322.50
2023-03-05T10:48:15.819Z,326.90
2023-03-05T10:50:52.645Z,484.40
2023-03-05T10:53:31.950Z,637.40
2023-03-05T10:56:04.061Z,211.60
2023-03-05T10:58:31.806Z,269.80
2023-03-05T11:01:11.148Z,113.70
2023-03-05T11:03:55.495Z,85.10
2023-03-05T11:06:30.071Z,60.80
2023-03-05T11:09:18.072Z,37.60
2023-03-05T11:12:04.645Z,22.90
2023-03-05T11:14:33.699Z,48.90
2023-03-05T11:17:02.528Z,18.00
2023-03-05T11:19:34.611Z,36.50
2023-03-05T11:22:06.883Z,55.30
2023-03-05T11:24:34.070Z,42.30
2023-03-05T11:27:01.357Z,41.20
2023-03-05T11:29:32.082Z,19.00
2023-03-05T11:32:20.389Z,22.80
2023-03-05T11:34:47.627Z,17.70
2023-03-05T11:37:26.758Z,49.50
2023-03-05T11:40:22.628Z,56.60
2023-03-05T11:42:56.106Z,19.50
2023-03-05T11:45:25.286Z,38.10
2023-03-05T11:48:21.716Z,21.00
2023-03-05T11:51:01.546Z,14.20
2023-03-05T11:53:32.375Z,13.50
2023-03-05T11:56:05.520Z,10.10
2023-03-05T11:59:00.479Z,12.20
2023-03-05T12:01:31.592Z,21.60
2023-03-05T12:04:00.261Z,23.30
2023-03-05T12:06:42.648Z,27.10
2023-03-05T12:09:29.858Z,23.30
2023-03-05T12:12:25.041Z,26.90
2023-03-05T12:15:15.290Z,23.70
2023-03-05T12:18:04.070Z,29.40
2023-03-05T12:20:57.204Z,19.70
2023-03-05T12:23:27.068Z,29.20
2023-03-05T12:25:57.893Z,25.70
2023-03-05T12:28:34.345Z,43.90
2023-03-05T12:31:06.305Z,36.10
2023-03-05T12:33:44.382Z,49.30
2023-03-05T12:36:17.795Z,31.60
2023-03-05T12:38:47.765Z,35.40
2023-03-05T12:41:25.448Z,16.20
2023-03-05T12:44:06.403Z,22.80
2023-03-05T12:46:35.887Z,15.10
2023-03-05T12:49:18.441Z,16.30
2023-03-05T12:51:51.034Z,18.70
2023-03-05T12:54:32.708Z,15.70
2023-03-05T12:57:15.030Z,17.40
2023-03-05T13:00:00.454Z,12.20
2023-03-05T13:02:31.316Z,12.20
2023-03-05T13:05:07.579Z,10.10
2023-03-05T13:07:35.082Z,7.50
2023-03-05T13:10:02.226Z,8.10
2023-03-05T13:12:31.067Z,10.70
2023-03-05T13:15:14.705Z,13.30
2023-03-05T13:17:57.095Z,12.20
2023-03-05T13:20:34.416Z,15.40
2023-03-05T13:23:24.352Z,10.40
2023-03-05T13:26:13.263Z,11.20
2023-03-05T13:28:41.931Z,9.30
2023-03-05T13:31:18.770Z,13.20
2023-03-05T13:33:56.024Z,7.60
2023-03-05T13:36:25.879Z,6.00
2023-03-05T13:38:53.908Z,5.20
2023-03-05T13:41:24.895Z,6.30
2023-03-05T13:44:01.202Z,11.80
2023-03-05T13:46:39.022Z,13.10
2023-03-05T13:49:35.347Z,23.90
2023-03-05T13:52:03.097Z,14.50
2023-03-05T13:54:31.032Z,8.40
2023-03-05T13:57:01.974Z,7.00
2023-03-05T13:59:34.137Z,8.20
2023-03-05T14:02:06.096Z,7.10
2023-03-05T14:04:37.766Z,7.60
2023-03-05T14:07:07.684Z,12.70
2023-03-05T14:09:37.639Z,9.20
2023-03-05T14:12:07.530Z,9.60
2023-03-05T14:14:38.064Z,10.90
2023-03-05T14:17:23.774Z,7.00
2023-03-05T14:19:50.940Z,7.30
2023-03-05T14:22:36.487Z,6.40
2023-03-05T14:25:05.753Z,4.00
2023-03-05T14:27:36.820Z,2.40
2023-03-05T14:30:06.308Z,2.40
2023-03-05T14:32:36.385Z,3.70
2023-03-05T14:35:06.116Z,4.10
2023-03-05T14:37:36.922Z,7.80
2023-03-05T14:40:10.118Z,6.30
2023-03-05T14:42:39.500Z,2.60
2023-03-05T14:45:19.373Z,2.70
2023-03-05T14:47:46.933Z,4.60
2023-03-05T14:50:20.377Z,3.70
2023-03-05T14:52:49.989Z,6.40
2023-03-05T14:55:20.568Z,8.10
2023-03-05T14:57:48.858Z,20.00
2023-03-05T15:00:18.529Z,20.40
2023-03-05T15:02:45.794Z,10.30
2023-03-05T15:05:13.062Z,17.20
2023-03-05T15:07:40.348Z,19.50
2023-03-05T15:10:08.756Z,19.70
2023-03-05T15:12:35.878Z,9.20
2023-03-05T15:15:03.733Z,12.10
2023-03-05T15:17:39.764Z,12.60
2023-03-05T15:20:08.374Z,9.30
2023-03-05T15:22:36.064Z,5.80
2023-03-05T15:25:04.159Z,9.00
2023-03-05T15:27:31.387Z,8.10
2023-03-05T15:29:59.718Z,13.60
2023-03-05T15:32:29.166Z,7.60
2023-03-05T15:34:56.571Z,11.40
2023-03-05T15:37:23.764Z,9.10
2023-03-05T15:39:50.802Z,8.00
2023-03-05T15:42:17.902Z,5.00
2023-03-05T15:44:44.977Z,6.10
2023-03-05T15:47:12.303Z,5.90
2023-03-05T15:49:39.381Z,8.50
2023-03-05T15:52:06.501Z,11.40
2023-03-05T15:54:35.546Z,13.50
2023-03-05T15:57:02.629Z,8.40
2023-03-05T15:59:29.772Z,14.80
2023-03-05T16:01:56.895Z,14.80
2023-03-05T16:04:24.075Z,13.20
2023-03-05T16:06:51.256Z,69.90
2023-03-05T16:09:20.428Z,76.50
2023-03-05T16:11:51.390Z,69.30
2023-03-05T16:14:23.457Z,38.50
2023-03-05T16:16:52.689Z,50.50
2023-03-05T16:19:20.865Z,24.80
2023-03-05T16:21:48.059Z,18.20
2023-03-05T16:24:15.142Z,108.90
2023-03-05T16:26:42.725Z,83.00
2023-03-05T16:29:10.128Z,42.30
2023-03-05T16:31:41.621Z,28.80
2023-03-05T16:34:09.573Z,37.30
2023-03-05T16:36:36.701Z,28.60
2023-03-05T16:39:05.515Z,31.60
2023-03-05T16:41:33.259Z,30.50
2023-03-05T16:44:00.627Z,18.00
2023-03-05T16:46:29.958Z,11.80
2023-03-05T16:48:57.917Z,16.90
2023-03-05T16:51:26.336Z,25.10
2023-03-05T16:53:55.001Z,37.00
2023-03-05T16:56:23.251Z,34.20
2023-03-05T16:58:53.207Z,32.70
2023-03-05T17:01:21.723Z,27.10
2023-03-05T17:03:49.622Z,21.60
2023-03-05T17:06:20.732Z,26.50
2023-03-05T17:08:49.651Z,22.70
2023-03-05T17:11:17.194Z,16.00
2023-03-05T17:13:47.096Z,24.40
2023-03-05T17:16:17.461Z,22.70
2023-03-05T17:18:44.603Z,26.00
2023-03-05T17:21:12.574Z,44.80
2023-03-05T17:23:40.466Z,58.40
2023-03-05T17:26:13.681Z,69.40
2023-03-05T17:28:41.450Z,43.80
2023-03-05T17:31:08.624Z,58.70
2023-03-05T17:33:36.709Z,107.50
2023-03-05T17:36:04.589Z,56.80
2023-03-05T17:38:31.992Z,54.00
2023-03-05T17:40:59.183Z,47.00
2023-03-05T17:43:26.326Z,40.60
2023-03-05T17:45:53.486Z,24.00
2023-03-05T17:48:20.571Z,23.10
2023-03-05T17:50:47.547Z,21.00
2023-03-05T17:53:14.639Z,18.70
2023-03-05T17:55:42.231Z,22.80
2023-03-05T17:58:09.973Z,36.50
2023-03-05T18:00:37.610Z,31.10
2023-03-05T18:03:05.532Z,26.10
2023-03-05T18:05:32.680Z,26.90
2023-03-05T18:08:00.875Z,17.50
2023-03-05T18:10:29.265Z,13.40
2023-03-05T18:12:56.676Z,18.30
2023-03-05T18:15:25.370Z,11.10
2023-03-05T18:17:52.789Z,17.10
2023-03-05T18:20:24.843Z,17.00
2023-03-05T18:22:52.245Z,23.70
2023-03-05T18:25:19.465Z,17.70
2023-03-05T18:27:46.620Z,13.10
2023-03-05T18:30:13.905Z,12.40
2023-03-05T18:32:41.186Z,17.10
2023-03-05T18:35:09.639Z,15.20
2023-03-05T18:37:39.892Z,15.20
2023-03-05T18:40:09.796Z,17.70
2023-03-05T18:42:37.214Z,14.70
2023-03-05T18:45:06.282Z,34.90
2023-03-05T18:47:33.989Z,33.10
2023-03-05T18:50:01.069Z,38.90
2023-03-05T18:52:28.270Z,30.40
2023-03-05T18:54:55.394Z,30.10
2023-03-05T18:57:22.500Z,33.50
2023-03-05T18:59:49.598Z,29.50
2023-03-05T19:02:17.528Z,30.00
2023-03-05T19:04:44.659Z,44.30
2023-03-05T19:07:11.828Z,48.30
2023-03-05T19:09:53.353Z,62.50
2023-03-05T19:12:22.250Z,111.50
2023-03-05T19:14:49.394Z,70.20
2023-03-05T19:17:16.605Z,95.60
2023-03-05T19:19:44.003Z,73.50
2023-03-05T19:22:12.457Z,49.20
2023-03-05T19:24:39.660Z,66.60
2023-03-05T19:27:15.924Z,88.00
2023-03-05T19:29:43.800Z,98.10
2023-03-05T19:32:14.255Z,272.60
2023-03-05T19:34:41.703Z,300.80
2023-03-05T19:37:09.442Z,197.40
2023-03-05T19:39:36.545Z,140.40
2023-03-05T19:42:04.280Z,105.80
2023-03-05T19:44:31.608Z,72.70
2023-03-05T19:46:58.835Z,65.10
2023-03-05T19:49:26.003Z,79.60
2023-03-05T19:51:53.017Z,74.20
2023-03-05T19:54:22.045Z,73.10
2023-03-05T19:56:50.833Z,43.50
2023-03-05T19:59:21.220Z,43.00
2023-03-05T20:01:49.451Z,72.80
2023-03-05T20:04:20.182Z,83.60
2023-03-05T20:06:47.482Z,84.30
2023-03-05T20:09:15.355Z,68.20
2023-03-05T20:11:42.785Z,86.60
2023-03-05T20:14:13.104Z,110.30
2023-03-05T20:16:40.750Z,86.30
2023-03-05T20:19:10.290Z,89.60
2023-03-05T20:21:40.719Z,83.20
2023-03-05T20:24:11.953Z,64.70
2023-03-05T20:26:40.304Z,45.10
2023-03-05T20:29:07.740Z,41.10
2023-03-05T20:31:37.307Z,49.60
2023-03-05T20:34:07.185Z,53.00
2023-03-05T20:36:34.870Z,51.90
2023-03-05T20:39:03.395Z,46.70
2023-03-05T20:41:31.578Z,43.70
2023-03-05T20:43:58.652Z,36.10
2023-03-05T20:46:34.238Z,50.10
2023-03-05T20:51:31.653Z,29.80
2023-03-05T20:54:03.353Z,28.00
2023-03-05T20:56:32.565Z,24.80
2023-03-05T20:59:01.356Z,33.40
2023-03-05T21:01:29.016Z,31.70
2023-03-05T21:03:57.350Z,33.00
2023-03-05T21:06:26.125Z,26.90
2023-03-05T21:08:53.612Z,24.00
2023-03-05T21:11:21.062Z,18.50
2023-03-05T21:13:48.379Z,27.20
2023-03-05T21:16:22.562Z,25.20
2023-03-05T21:18:51.224Z,23.50
2023-03-05T21:21:19.150Z,22.70
2023-03-05T21:23:47.233Z,36.50
2023-03-05T21:26:14.881Z,29.90
2023-03-05T21:28:42.166Z,29.50
2023-03-05T21:31:14.498Z,22.50
2023-03-05T21:33:42.274Z,21.50
2023-03-05T21:36:09.938Z,26.70
2023-03-05T21:38:37.101Z,23.90
2023-03-05T21:41:05.362Z,22.70
2023-03-05T21:43:33.063Z,22.40
2023-03-05T21:46:02.122Z,37.40
2023-03-05T21:48:29.312Z,35.00
2023-03-05T21:50:57.351Z,33.00
2023-03-05T21:53:24.750Z,34.90
2023-03-05T21:56:15.503Z,38.60
2023-03-05T21:58:42.618Z,37.60
2023-03-05T22:01:13.627Z,35.40
2023-03-05T22:03:40.768Z,38.10
2023-03-05T22:06:12.204Z,32.10
2023-03-05T22:08:39.312Z,40.10
2023-03-05T22:11:14.941Z,47.00
2023-03-05T22:13:42.966Z,42.10
2023-03-05T22:16:10.620Z,47.90
2023-03-05T22:18:37.751Z,54.40
2023-03-05T22:21:05.250Z,38.40
2023-03-05T22:23:36.868Z,37.80
2023-03-05T22:26:08.043Z,32.70
2023-03-05T22:28:36.301Z,39.20
2023-03-05T22:31:03.575Z,45.30
2023-03-05T22:33:32.064Z,41.40
2023-03-05T22:35:59.583Z,42.30
2023-03-05T22:38:26.852Z,43.80
2023-03-05T22:40:54.051Z,35.40
2023-03-05T22:43:21.540Z,31.90
2023-03-05T22:45:49.049Z,33.90
2023-03-05T22:48:16.558Z,34.50
2023-03-05T22:50:44.492Z,44.30
2023-03-05T22:53:12.208Z,39.70
2023-03-05T22:55:40.643Z,31.20
2023-03-05T22:58:07.846Z,27.90
2023-03-05T23:00:34.907Z,23.10
2023-03-05T23:03:02.338Z,26.90
2023-03-05T23:05:29.486Z,30.50
2023-03-05T23:07:56.606Z,29.90
2023-03-05T23:10:27.242Z,31.80
2023-03-05T23:12:56.516Z,318.50
2023-03-05T23:15:31.008Z,86.30
2023-03-05T23:17:58.655Z,44.90
2023-03-05T23:20:28.891Z,32.10
2023-03-05T23:22:56.460Z,28.30
2023-03-05T23:25:26.047Z,31.30
2023-03-05T23:27:53.808Z,30.70
2023-03-05T23:30:23.195Z,44.70
2023-03-05T23:33:04.215Z,62.60
2023-03-05T23:35:34.486Z,41.00
2023-03-05T23:38:04.206Z,39.90
2023-03-05T23:40:36.570Z,36.00
2023-03-05T23:43:04.666Z,32.20
2023-03-05T23:45:32.303Z,31.50
2023-03-05T23:47:59.552Z,30.30
2023-03-05T23:50:38.563Z,31.80
2023-03-05T23:53:13.000Z,29.60
2023-03-05T23:55:43.288Z,28.30
2023-03-05T23:58:11.466Z,28.00
